Time;durP1;ratioP1;P1;durP2;ratioP2;P2;SDS_P1;SDS_P2;PMS_P1;PMS_P2;Temp;Humidity;BMP_temperature;BMP_pressure;BME280_temperature;BME280_humidity;BME280_pressure;Samples;Min_cycle;Max_cycle;Signal;HPM_P1;HPM_P2
2024/04/25 08:05:46;;;;;;;13.38;4.80;;;;;;;4.22;85.95;95774.94;2256149;25;20625;-66
2024/04/25 08:07:42;;;;;;;11.48;3.78;;;;;;;4.36;85.73;95788.25;2274946;25;20615;-64
2024/04/25 08:08:44;;;;;;;11.18;3.60;;;;;;;4.71;84.96;95796.53;2250571;26;20214;-64
2024/04/25 08:09:46;;;;;;;11.75;3.83;;;;;;;4.76;83.56;95792.94;2250634;26;20259;-64
2024/04/25 08:10:48;;;;;;;10.25;3.63;;;;;;;4.72;82.17;95792.19;2265088;26;20215;-64
2024/04/25 08:11:50;;;;;;;9.25;3.58;;;;;;;4.64;82.26;95789.06;2265875;25;20244;-66
2024/04/25 08:12:52;;;;;;;15.50;3.75;;;;;;;4.88;82.97;95785.59;2259195;26;20251;-67
2024/04/25 08:13:53;;;;;;;6.93;3.08;;;;;;;4.90;82.04;95788.97;2245309;26;20260;-66
2024/04/25 08:14:58;;;;;;;13.93;3.15;;;;;;;4.95;81.11;95795.72;2227718;26;20317;-66
2024/04/25 08:15:59;;;;;;;8.82;2.85;;;;;;;4.95;82.03;95788.81;2229931;26;20261;-66
2024/04/25 08:17:01;;;;;;;9.80;2.60;;;;;;;5.02;81.98;95797.19;2227432;26;20255;-66
2024/04/25 08:18:04;;;;;;;15.43;3.78;;;;;;;5.10;81.35;95791.75;2215307;26;20263;-66
2024/04/25 08:19:06;;;;;;;9.52;3.35;;;;;;;5.28;81.46;95788.47;2226672;26;20227;-66
2024/04/25 08:20:11;;;;;;;13.80;3.33;;;;;;;5.47;80.96;95780.00;2245093;26;20218;-66
2024/04/25 08:21:12;;;;;;;7.43;2.40;;;;;;;5.45;79.05;95782.66;2243968;26;20319;-68
2024/04/25 08:22:14;;;;;;;14.30;2.30;;;;;;;5.47;79.83;95783.44;2238999;26;20288;-67
2024/04/25 08:23:16;;;;;;;9.20;3.03;;;;;;;5.39;79.22;95775.13;2244968;26;20217;-66
2024/04/25 08:24:19;;;;;;;11.40;2.70;;;;;;;5.16;78.48;95782.00;2245217;26;20798;-66
2024/04/25 08:25:20;;;;;;;13.77;2.85;;;;;;;5.24;79.12;95784.28;2229181;26;20345;-66
2024/04/25 08:26:23;;;;;;;8.90;3.10;;;;;;;5.27;78.68;95789.38;2229043;26;20223;-67
2024/04/25 08:27:25;;;;;;;14.27;2.92;;;;;;;5.27;79.79;95786.78;2244913;26;20225;-67
2024/04/25 08:28:27;;;;;;;7.85;2.55;;;;;;;5.31;80.19;95783.19;2229371;26;20215;-66
2024/04/25 08:29:28;;;;;;;12.20;3.08;;;;;;;5.30;79.58;95786.66;2229638;26;20513;-67
2024/04/25 08:30:30;;;;;;;12.82;3.47;;;;;;;5.53;78.57;95787.53;2244090;26;20314;-67
2024/04/25 08:31:32;;;;;;;12.55;2.90;;;;;;;5.53;77.62;95788.38;2244459;26;20668;-66
2024/04/25 08:32:33;;;;;;;9.02;2.70;;;;;;;5.44;78.75;95787.91;2244952;26;20261;-66
2024/04/25 08:33:35;;;;;;;8.82;2.42;;;;;;;5.44;78.28;95787.91;2244225;26;20273;-66
2024/04/25 08:34:37;;;;;;;8.05;2.53;;;;;;;5.55;77.67;95785.75;2243894;26;20294;-67
2024/04/25 08:35:39;;;;;;;7.07;2.30;;;;;;;5.62;77.65;95781.16;2245425;26;21249;-67
2024/04/25 08:36:40;;;;;;;8.85;2.47;;;;;;;5.52;76.69;95788.44;2243947;26;20257;-66
2024/04/25 08:37:42;;;;;;;7.15;2.90;;;;;;;5.67;77.95;95789.59;2243405;26;20315;-66
2024/04/25 08:38:44;;;;;;;11.48;2.50;;;;;;;5.65;77.15;95787.06;2245278;26;20256;-67
2024/04/25 08:39:50;;;;;;;7.70;2.35;;;;;;;5.77;76.96;95783.16;2229096;26;20230;-67
2024/04/25 08:40:54;;;;;;;7.22;2.17;;;;;;;5.93;78.03;95779.94;2230812;26;20224;-67
2024/04/25 08:41:57;;;;;;;6.50;2.47;;;;;;;5.86;78.19;95787.13;2244622;26;20249;-67
2024/04/25 08:42:59;;;;;;;13.75;2.47;;;;;;;5.84;77.33;95781.16;2245210;26;20258;-66
2024/04/25 08:44:01;;;;;;;8.88;2.17;;;;;;;5.97;76.01;95781.53;2245028;26;20206;-66
2024/04/25 08:45:04;;;;;;;7.75;1.90;;;;;;;6.12;76.53;95775.75;2245046;26;20696;-66
2024/04/25 08:46:16;;;;;;;11.63;3.17;;;;;;;6.19;75.32;95773.75;2228291;26;20262;-66
2024/04/25 08:47:19;;;;;;;14.02;3.10;;;;;;;6.09;73.98;95772.44;2230401;26;20235;-66
2024/04/25 08:48:22;;;;;;;10.80;2.75;;;;;;;6.10;74.80;95781.91;2244783;26;20562;-66
2024/04/25 08:49:25;;;;;;;14.40;3.40;;;;;;;6.33;73.89;95775.78;2244212;26;20217;-66
2024/04/25 08:50:29;;;;;;;14.85;3.53;;;;;;;6.43;73.38;95782.25;2243361;26;20258;-66
2024/04/25 08:51:32;;;;;;;7.00;3.50;;;;;;;6.52;73.61;95768.88;2242702;26;20229;-66
2024/04/25 08:52:37;;;;;;;9.88;2.50;;;;;;;6.84;73.22;95781.38;2243675;26;20253;-66
2024/04/25 08:53:39;;;;;;;10.55;1.88;;;;;;;6.46;71.59;95786.47;2242200;26;20472;-67
2024/04/25 08:54:43;;;;;;;5.10;1.90;;;;;;;6.53;72.52;95773.16;2244864;26;20635;-66
2024/04/25 08:55:45;;;;;;;6.63;1.70;;;;;;;6.72;72.50;95772.41;2241452;26;20214;-66
2024/04/25 08:56:47;;;;;;;5.10;1.77;;;;;;;7.12;72.03;95777.56;2228313;26;20295;-67
2024/04/25 08:57:49;;;;;;;9.13;3.00;;;;;;;7.38;72.02;95772.94;2229638;26;20215;-66
2024/04/25 08:58:50;;;;;;;6.05;2.05;;;;;;;7.55;71.98;95783.41;2229897;26;20331;-66
2024/04/25 08:59:52;;;;;;;12.50;2.20;;;;;;;7.65;69.52;95771.66;2228739;26;20258;-67
2024/04/25 09:00:57;;;;;;;11.50;2.20;;;;;;;7.71;69.06;95777.50;2228693;26;20252;-64
2024/04/25 09:01:59;;;;;;;6.75;1.98;;;;;;;7.44;69.53;95770.06;2229250;26;20253;-65
2024/04/25 09:03:07;;;;;;;18.20;7.35;;;;;;;7.14;67.84;95773.16;2229713;26;20223;-65
2024/04/25 09:04:14;;;;;;;7.32;2.05;;;;;;;7.28;67.67;95775.97;2228018;26;20322;-65
2024/04/25 09:05:19;;;;;;;9.95;2.92;;;;;;;7.41;68.01;95767.63;2229622;26;20215;-65
2024/04/25 09:06:24;;;;;;;13.20;1.90;;;;;;;7.88;68.82;95766.31;2225939;26;20688;-64
2024/04/25 09:07:28;;;;;;;9.10;1.58;;;;;;;8.23;68.91;95769.78;2217253;26;20302;-64
2024/04/25 09:08:30;;;;;;;4.28;1.30;;;;;;;7.63;66.81;95768.31;2217034;26;20337;-64
2024/04/25 09:09:31;;;;;;;9.00;1.60;;;;;;;7.42;69.19;95764.94;2229099;26;20230;-64
2024/04/25 09:10:42;;;;;;;11.20;1.85;;;;;;;7.25;69.22;95767.47;2229940;26;20217;-64
2024/04/25 09:11:53;;;;;;;8.52;2.08;;;;;;;6.97;69.94;95764.38;2226165;26;20366;-64
2024/04/25 09:12:54;;;;;;;6.00;1.73;;;;;;;6.47;69.88;95773.44;2214536;26;20260;-64
2024/04/25 09:13:57;;;;;;;5.53;1.77;;;;;;;6.64;71.91;95762.34;2212269;26;20332;-64
2024/04/25 09:14:59;;;;;;;11.38;1.95;;;;;;;6.37;71.27;95774.72;2227858;26;20367;-64
2024/04/25 09:16:01;;;;;;;6.68;1.40;;;;;;;5.98;70.21;95776.31;2229456;26;20257;-65
2024/04/25 09:17:03;;;;;;;5.68;1.45;;;;;;;6.04;71.33;95773.47;2212191;26;20321;-64
2024/04/25 09:18:04;;;;;;;5.68;1.45;;;;;;;6.08;70.48;95770.75;2214702;26;20550;-65
2024/04/25 09:19:07;;;;;;;8.57;1.48;;;;;;;5.77;70.10;95769.38;2222274;26;20274;-65
2024/04/25 09:20:09;;;;;;;5.68;1.48;;;;;;;5.81;72.04;95763.97;2222745;26;20246;-65
2024/04/25 09:21:11;;;;;;;5.85;1.77;;;;;;;5.77;70.80;95766.78;2222754;26;20264;-65
2024/04/25 09:22:13;;;;;;;6.90;1.60;;;;;;;5.75;71.55;95765.97;2222993;26;20606;-68
2024/04/25 09:23:14;;;;;;;4.70;1.45;;;;;;;5.75;70.87;95760.78;2221559;26;20869;-68
2024/04/25 09:24:17;;;;;;;4.25;1.15;;;;;;;5.94;69.85;95756.59;2221662;26;20277;-67
2024/04/25 09:25:18;;;;;;;5.63;1.70;;;;;;;5.99;69.04;95756.41;2221886;26;20291;-68
2024/04/25 09:26:21;;;;;;;5.00;1.80;;;;;;;6.04;69.16;95762.25;2222222;26;20221;-68
2024/04/25 09:27:22;;;;;;;9.93;1.67;;;;;;;6.26;69.44;95758.78;2223203;26;20909;-68
2024/04/25 09:28:24;;;;;;;4.72;1.55;;;;;;;6.37;69.14;95757.44;2223448;26;20247;-68
2024/04/25 09:29:26;;;;;;;7.05;2.33;;;;;;;6.46;68.38;95761.38;2223071;26;21018;-68
2024/04/25 09:30:30;;;;;;;9.07;1.45;;;;;;;6.59;68.72;95759.13;2221463;26;20212;-67
2024/04/25 09:31:33;;;;;;;7.60;1.95;;;;;;;6.80;68.03;95759.09;2221338;26;20271;-68
2024/04/25 09:32:39;;;;;;;7.68;2.00;;;;;;;6.74;67.23;95751.56;2222577;26;20662;-68
2024/04/25 09:33:41;;;;;;;5.85;1.38;;;;;;;6.93;67.30;95756.78;2223583;26;20254;-66
2024/04/25 09:34:42;;;;;;;5.85;1.30;;;;;;;6.81;65.90;95745.19;2223394;26;20225;-65
2024/04/25 09:35:46;;;;;;;5.57;1.75;;;;;;;6.81;66.26;95747.78;2221395;26;20222;-65
2024/04/25 09:36:50;;;;;;;5.03;1.40;;;;;;;7.26;66.74;95745.78;2222782;26;20393;-65
2024/04/25 09:37:52;;;;;;;6.80;2.45;;;;;;;7.54;65.29;95742.75;2221294;26;20279;-65
2024/04/25 09:38:54;;;;;;;7.43;2.25;;;;;;;7.66;64.67;95751.75;2208192;26;20771;-65
2024/04/25 09:39:56;;;;;;;5.57;1.40;;;;;;;7.39;62.28;95748.66;2208476;26;20314;-65
2024/04/25 09:41:07;;;;;;;6.25;1.13;;;;;;;6.97;62.47;95748.81;2221876;26;20814;-65
2024/04/25 09:42:11;;;;;;;5.25;1.80;;;;;;;7.09;65.21;95746.56;2223070;26;20245;-65
2024/04/25 09:43:14;;;;;;;4.63;1.92;;;;;;;6.95;63.98;95749.78;2223464;26;20219;-65
2024/04/25 09:44:16;;;;;;;7.65;1.35;;;;;;;7.02;65.34;95746.84;2223015;26;20256;-65
2024/04/25 09:45:21;;;;;;;5.63;1.67;;;;;;;6.83;65.06;95746.81;2223301;26;20212;-65
2024/04/25 09:46:52;;;;;;;6.57;1.55;;;;;;;6.81;66.08;95751.22;2222061;26;20580;-65
2024/04/25 09:47:54;;;;;;;5.95;1.55;;;;;;;6.49;64.96;95745.69;2209608;26;20547;-65
2024/04/25 09:49:01;;;;;;;10.27;2.00;;;;;;;6.47;65.42;95751.84;2207928;26;20554;-65
2024/04/25 09:50:11;;;;;;;10.43;1.92;;;;;;;6.16;65.72;95746.19;2209953;26;20640;-65
2024/04/25 09:51:21;;;;;;;10.48;2.20;;;;;;;5.94;66.22;95753.13;2223561;26;20227;-65
2024/04/25 09:52:31;;;;;;;8.15;2.40;;;;;;;5.98;66.88;95750.41;2222381;26;20239;-65
2024/04/25 09:54:01;;;;;;;6.72;1.67;;;;;;;5.65;65.86;95747.34;2221543;26;20804;-65
2024/04/25 09:55:04;;;;;;;11.45;2.55;;;;;;;5.40;66.27;95741.38;2213962;26;20220;-64
2024/04/25 09:56:06;;;;;;;10.40;1.73;;;;;;;5.52;65.51;95750.44;2223167;26;20317;-64
2024/04/25 09:57:10;;;;;;;7.95;1.70;;;;;;;5.53;65.60;95746.09;2221960;26;20736;-64
2024/04/25 09:58:20;;;;;;;13.07;3.70;;;;;;;5.75;66.60;95746.09;2222948;26;20678;-64
2024/04/25 09:59:41;;;;;;;8.70;2.10;;;;;;;5.82;65.41;95747.53;2223667;26;20216;-65
2024/04/25 10:00:44;;;;;;;10.15;1.90;;;;;;;5.80;65.18;95749.38;2222873;26;20215;-65
2024/04/25 10:01:47;;;;;;;6.45;1.80;;;;;;;5.85;65.18;95749.16;2220814;26;20772;-65
2024/04/25 10:02:49;;;;;;;7.47;1.80;;;;;;;5.93;65.48;95751.44;2221525;26;20219;-65
2024/04/25 10:03:50;;;;;;;6.97;3.65;;;;;;;6.04;64.64;95747.56;2223177;26;20787;-65
2024/04/25 10:04:54;;;;;;;9.55;2.40;;;;;;;6.04;64.20;95742.38;2223555;26;20442;-65
2024/04/25 10:05:56;;;;;;;10.52;3.80;;;;;;;6.04;64.33;95750.16;2220975;26;20219;-64
2024/04/25 10:06:59;;;;;;;4.90;1.98;;;;;;;6.07;65.39;95745.72;2222138;26;20255;-64
2024/04/25 10:08:01;;;;;;;8.25;2.30;;;;;;;6.21;65.41;95741.66;2223261;26;20211;-65
2024/04/25 10:09:04;;;;;;;7.38;2.72;;;;;;;6.41;65.51;95739.13;2223341;26;20275;-65
2024/04/25 10:10:07;;;;;;;18.55;4.13;;;;;;;6.43;65.21;95751.13;2223350;26;20303;-65
2024/04/25 10:11:14;;;;;;;7.90;3.70;;;;;;;6.34;65.66;95747.16;2221911;26;20255;-65
2024/04/25 10:12:20;;;;;;;9.98;4.45;;;;;;;6.28;65.80;95739.66;2214010;26;20263;-65
2024/04/25 10:13:25;;;;;;;19.38;6.25;;;;;;;6.21;66.34;95740.84;2221850;26;20257;-65
2024/04/25 10:14:28;;;;;;;25.38;4.10;;;;;;;6.12;65.86;95743.78;2220287;26;20330;-65
2024/04/25 10:15:30;;;;;;;21.90;9.15;;;;;;;6.10;65.91;95749.03;2222608;26;20262;-65
2024/04/25 10:16:32;;;;;;;16.77;7.07;;;;;;;6.26;65.62;95745.81;2222992;26;20946;-65
2024/04/25 10:17:34;;;;;;;15.18;5.22;;;;;;;6.42;65.80;95736.47;2222153;26;20739;-65
2024/04/25 10:18:46;;;;;;;6.20;2.65;;;;;;;6.52;64.84;95734.34;2223321;26;20298;-65
2024/04/25 10:19:48;;;;;;;9.25;2.72;;;;;;;6.54;64.52;95748.09;2220134;26;20287;-65
2024/04/25 10:21:00;;;;;;;4.38;1.50;;;;;;;6.50;63.71;95747.38;2221536;26;20527;-65
2024/04/25 10:22:02;;;;;;;12.40;5.80;;;;;;;6.63;64.40;95741.66;2222754;26;20757;-65
2024/04/25 10:23:04;;;;;;;7.65;2.50;;;;;;;6.70;63.76;95741.31;2222758;26;20258;-65
2024/04/25 10:24:08;;;;;;;4.18;1.55;;;;;;;6.96;63.85;95734.13;2221650;26;20291;-67
2024/04/25 10:25:14;;;;;;;4.72;1.65;;;;;;;6.85;63.76;95738.97;2222417;26;20223;-68
2024/04/25 10:26:18;;;;;;;3.50;1.20;;;;;;;6.95;64.96;95735.03;2233422;26;20215;-68
2024/04/25 10:27:19;;;;;;;6.90;1.48;;;;;;;6.98;64.36;95731.47;2235462;26;20313;-65
2024/04/25 10:28:21;;;;;;;4.82;1.73;;;;;;;7.13;64.65;95735.13;2219865;26;20216;-65
2024/04/25 10:29:30;;;;;;;5.47;1.50;;;;;;;7.17;64.20;95732.34;2222489;26;20259;-65
2024/04/25 10:30:35;;;;;;;5.07;1.88;;;;;;;7.00;64.47;95734.84;2222038;26;20322;-65
2024/04/25 10:31:38;;;;;;;4.85;1.63;;;;;;;7.13;63.98;95730.75;2219924;26;20262;-65
2024/04/25 10:32:40;;;;;;;6.97;1.45;;;;;;;7.73;62.67;95734.09;2221894;26;20259;-65
2024/04/25 10:33:41;;;;;;;7.50;2.30;;;;;;;7.35;61.95;95729.78;2222344;26;20973;-65
2024/04/25 10:34:43;;;;;;;3.17;1.30;;;;;;;7.10;61.33;95730.09;2222689;26;20223;-65
2024/04/25 10:35:46;;;;;;;6.38;1.90;;;;;;;7.03;62.05;95725.16;2223249;26;20219;-65
2024/04/25 10:36:48;;;;;;;4.53;1.42;;;;;;;6.86;60.69;95725.06;2220938;26;20251;-65
2024/04/25 10:37:50;;;;;;;7.78;1.90;;;;;;;6.59;60.76;95734.91;2220518;26;20261;-65
2024/04/25 10:38:52;;;;;;;7.95;1.90;;;;;;;6.35;60.84;95724.69;2220379;26;20220;-65
2024/04/25 10:39:59;;;;;;;4.47;1.50;;;;;;;6.44;62.10;95723.47;2215563;26;20255;-65
2024/04/25 10:41:01;;;;;;;3.50;1.50;;;;;;;6.58;62.31;95730.63;2222688;26;20224;-65
2024/04/25 10:42:02;;;;;;;2.70;1.63;;;;;;;6.50;61.85;95726.63;2218308;26;20251;-65
2024/04/25 10:43:04;;;;;;;7.47;1.80;;;;;;;6.45;62.68;95725.97;2223303;26;20678;-65
2024/04/25 10:44:08;;;;;;;12.93;1.63;;;;;;;6.45;63.29;95736.34;2223290;26;21031;-65
2024/04/25 10:45:09;;;;;;;6.40;1.70;;;;;;;6.10;63.31;95712.75;2220987;26;20287;-65
2024/04/25 10:46:11;;;;;;;3.70;1.20;;;;;;;5.94;63.01;95730.66;2219030;26;20254;-65
2024/04/25 10:47:12;;;;;;;6.78;1.63;;;;;;;6.03;63.76;95729.44;2221346;26;20270;-65
2024/04/25 10:48:14;;;;;;;6.35;1.60;;;;;;;5.94;64.39;95722.91;2222959;26;20258;-65
2024/04/25 10:49:17;;;;;;;4.47;1.25;;;;;;;6.02;65.37;95723.44;2222242;26;20220;-65
2024/04/25 10:50:18;;;;;;;9.73;2.13;;;;;;;6.23;64.95;95733.81;2221831;26;20258;-65
2024/04/25 10:51:20;;;;;;;15.98;1.65;;;;;;;6.25;64.73;95725.97;2223279;26;20666;-65
2024/04/25 10:52:22;;;;;;;4.13;1.40;;;;;;;6.35;64.62;95717.75;2222903;26;20258;-65
2024/04/25 10:53:24;;;;;;;5.22;1.60;;;;;;;6.37;64.07;95723.72;2222912;26;20223;-64
2024/04/25 10:54:26;;;;;;;3.17;1.20;;;;;;;6.56;64.00;95717.72;2219646;26;20216;-65
2024/04/25 10:55:27;;;;;;;6.65;2.35;;;;;;;6.77;63.79;95720.31;2218189;26;20539;-65
2024/04/25 10:56:29;;;;;;;3.05;1.25;;;;;;;7.16;64.42;95709.00;2218925;26;20844;-65
2024/04/25 10:57:31;;;;;;;5.45;1.80;;;;;;;7.45;62.53;95718.06;2221137;26;20775;-65
2024/04/25 10:58:32;;;;;;;5.45;1.25;;;;;;;7.35;61.49;95722.84;2220761;26;20568;-63
2024/04/25 10:59:34;;;;;;;3.97;1.20;;;;;;;7.78;62.23;95721.72;2222509;26;20636;-63
2024/04/25 11:00:43;;;;;;;3.95;1.10;;;;;;;7.81;61.15;95708.59;2221113;26;20228;-63
2024/04/25 11:01:44;;;;;;;3.88;1.08;;;;;;;7.92;61.14;95716.72;2221035;26;20244;-63
2024/04/25 11:02:50;;;;;;;3.17;1.30;;;;;;;8.17;61.03;95718.09;2222863;26;20215;-64
2024/04/25 11:03:56;;;;;;;4.15;1.30;;;;;;;7.83;60.51;95711.94;2220843;26;20208;-64
2024/04/25 11:04:58;;;;;;;11.25;1.80;;;;;;;7.93;61.19;95714.94;2220996;26;20791;-64
2024/04/25 11:06:00;;;;;;;5.50;1.90;;;;;;;7.72;60.79;95709.00;2222828;26;20224;-64
2024/04/25 11:07:04;;;;;;;7.72;1.52;;;;;;;8.14;61.91;95710.44;2221380;26;20728;-64
2024/04/25 11:08:07;;;;;;;9.70;2.63;;;;;;;8.41;61.52;95707.38;2221496;26;20227;-66
2024/04/25 11:09:11;;;;;;;6.15;2.10;;;;;;;8.31;60.41;95705.22;2222638;26;20714;-64
2024/04/25 11:10:15;;;;;;;7.90;1.95;;;;;;;8.78;61.32;95711.53;2222992;26;20254;-64
2024/04/25 11:11:18;;;;;;;3.63;1.80;;;;;;;9.12;60.25;95706.31;2223160;26;20673;-64
2024/04/25 11:12:20;;;;;;;3.65;1.40;;;;;;;9.34;58.42;95705.13;2222426;26;20254;-64
2024/04/25 11:13:22;;;;;;;6.05;1.55;;;;;;;9.72;58.92;95700.41;2222508;26;20216;-66
2024/04/25 11:14:24;;;;;;;4.60;1.55;;;;;;;9.35;57.30;95696.41;2222122;26;20788;-67
2024/04/25 11:15:26;;;;;;;10.38;1.75;;;;;;;9.27;58.74;95697.66;2220782;26;20211;-67
2024/04/25 11:16:36;;;;;;;3.53;1.50;;;;;;;8.72;57.06;95698.00;2221393;26;20215;-67
2024/04/25 11:17:38;;;;;;;7.63;1.20;;;;;;;8.77;58.16;95698.59;2221677;26;20220;-67
2024/04/25 11:18:54;;;;;;;4.70;1.50;;;;;;;9.46;57.47;95707.09;2222191;26;20258;-67
2024/04/25 11:20:08;;;;;;;5.53;1.08;;;;;;;9.60;53.82;95693.28;2222695;26;20215;-67
2024/04/25 11:21:11;;;;;;;5.68;1.20;;;;;;;9.15;55.22;95701.78;2222916;26;20265;-67
2024/04/25 11:22:13;;;;;;;9.23;1.25;;;;;;;9.50;56.77;95703.38;2222241;26;20337;-67
2024/04/25 11:23:31;;;;;;;6.07;1.50;;;;;;;9.63;55.82;95698.31;2223028;26;20350;-67
2024/04/25 11:24:33;;;;;;;3.70;1.35;;;;;;;9.91;55.81;95702.78;2222334;26;20215;-67
2024/04/25 11:25:35;;;;;;;4.22;1.38;;;;;;;10.39;55.17;95692.25;2221976;26;20297;-67
2024/04/25 11:26:36;;;;;;;3.67;1.10;;;;;;;10.50;54.89;95696.00;2221847;26;20258;-67
2024/04/25 11:27:38;;;;;;;4.38;1.30;;;;;;;10.68;54.36;95694.03;2222840;26;20219;-69
2024/04/25 11:28:40;;;;;;;2.70;1.30;;;;;;;10.71;54.13;95694.69;2223017;26;21075;-69
2024/04/25 11:29:41;;;;;;;7.47;1.60;;;;;;;10.25;53.63;95697.41;2221424;26;20254;-69
2024/04/25 11:30:43;;;;;;;3.25;1.00;;;;;;;9.47;55.72;95696.56;2220999;26;20283;-69
2024/04/25 11:31:45;;;;;;;5.72;1.40;;;;;;;9.41;56.53;95693.47;2215462;26;20243;-68
2024/04/25 11:32:47;;;;;;;6.53;1.42;;;;;;;9.60;57.38;95685.47;2220114;26;20216;-69
2024/04/25 11:33:48;;;;;;;6.22;1.33;;;;;;;8.97;57.02;95698.38;2222264;26;20235;-69
2024/04/25 11:34:51;;;;;;;3.10;1.52;;;;;;;8.41;56.84;95703.00;2222928;26;20215;-69
2024/04/25 11:35:53;;;;;;;4.53;1.45;;;;;;;7.94;57.39;95694.06;2222905;26;20219;-68
2024/04/25 11:37:00;;;;;;;7.15;1.48;;;;;;;7.87;57.60;95689.25;2222481;26;20247;-68
2024/04/25 11:38:02;;;;;;;3.05;1.58;;;;;;;8.00;57.85;95693.75;2221680;26;20326;-68
2024/04/25 11:39:04;;;;;;;6.43;1.30;;;;;;;7.94;58.24;95694.06;2220949;26;20243;-68
2024/04/25 11:40:06;;;;;;;10.40;1.70;;;;;;;7.64;58.45;95693.78;2221316;26;20258;-68
2024/04/25 11:41:08;;;;;;;6.75;1.30;;;;;;;7.44;58.74;95698.19;2222373;26;20223;-68
2024/04/25 11:42:09;;;;;;;4.28;1.23;;;;;;;7.31;59.56;95697.06;2222189;26;20255;-68
2024/04/25 11:43:15;;;;;;;4.55;1.60;;;;;;;7.26;59.87;95697.31;2222796;26;20223;-68
2024/04/25 11:44:16;;;;;;;3.42;1.20;;;;;;;7.11;59.83;95691.06;2220942;26;20230;-68
2024/04/25 11:45:18;;;;;;;4.78;1.20;;;;;;;6.88;60.07;95696.47;2222052;26;20325;-68
2024/04/25 11:46:20;;;;;;;2.25;1.00;;;;;;;6.64;60.88;95702.69;2221829;26;20256;-68
2024/04/25 11:47:22;;;;;;;3.25;1.17;;;;;;;6.52;61.66;95701.44;2222037;26;20258;-68
2024/04/25 11:48:26;;;;;;;3.90;1.17;;;;;;;6.40;62.37;95701.13;2222446;26;20215;-68
2024/04/25 11:49:29;;;;;;;6.57;1.20;;;;;;;6.45;63.58;95701.78;2221290;26;20324;-67
2024/04/25 11:50:30;;;;;;;5.43;1.40;;;;;;;6.44;64.71;95694.94;2221878;26;20233;-68
2024/04/25 11:51:32;;;;;;;3.40;1.25;;;;;;;6.45;64.14;95701.78;2219835;26;20339;-68
2024/04/25 11:52:34;;;;;;;2.85;1.20;;;;;;;6.40;64.37;95698.53;2222771;26;20320;-68
2024/04/25 11:53:35;;;;;;;4.22;1.55;;;;;;;6.45;63.83;95699.19;2221696;26;20295;-68
2024/04/25 11:54:37;;;;;;;3.83;1.05;;;;;;;6.37;63.08;95700.38;2221931;26;20250;-68
2024/04/25 11:55:40;;;;;;;4.63;1.40;;;;;;;6.21;62.89;95701.94;2222483;26;20220;-68
2024/04/25 11:56:42;;;;;;;2.13;1.20;;;;;;;6.33;63.61;95693.63;2220254;26;20262;-68
2024/04/25 11:57:44;;;;;;;3.92;1.40;;;;;;;6.25;63.70;95700.91;2221480;26;20702;-68
2024/04/25 11:58:45;;;;;;;3.08;1.50;;;;;;;6.30;63.99;95700.72;2221552;26;20362;-68
2024/04/25 11:59:47;;;;;;;4.90;1.55;;;;;;;6.51;64.32;95699.78;2222524;26;20270;-67
2024/04/25 12:00:49;;;;;;;9.07;1.33;;;;;;;6.50;62.99;95697.22;2222530;26;20221;-68
2024/04/25 12:01:51;;;;;;;5.57;1.70;;;;;;;6.66;62.80;95708.63;2222213;26;20694;-68
2024/04/25 12:02:55;;;;;;;2.67;1.30;;;;;;;6.64;62.33;95701.81;2222740;26;20223;-68
2024/04/25 12:03:57;;;;;;;10.32;1.45;;;;;;;6.68;62.44;95704.22;2221306;26;20257;-68
2024/04/25 12:04:58;;;;;;;3.63;1.33;;;;;;;6.83;62.58;95710.50;2220629;26;20227;-67
2024/04/25 12:06:01;;;;;;;9.18;1.35;;;;;;;6.88;61.76;95699.88;2221215;26;20212;-68
2024/04/25 12:07:02;;;;;;;8.35;1.40;;;;;;;6.80;61.70;95702.81;2221845;26;20255;-68
2024/04/25 12:08:05;;;;;;;7.53;2.35;;;;;;;6.83;61.04;95707.91;2222286;26;20327;-68
2024/04/25 12:09:07;;;;;;;3.63;1.13;;;;;;;6.82;60.91;95703.59;2221883;26;20220;-68
2024/04/25 12:10:08;;;;;;;4.38;1.55;;;;;;;6.77;61.97;95702.16;2221769;26;20232;-68
2024/04/25 12:11:13;;;;;;;10.35;2.30;;;;;;;6.91;62.63;95694.56;2220288;26;20216;-68
2024/04/25 12:12:15;;;;;;;4.18;1.40;;;;;;;7.16;62.45;95696.03;2219979;26;20250;-68
2024/04/25 12:13:17;;;;;;;7.03;1.27;;;;;;;7.03;62.42;95691.41;2220828;26;20479;-68
2024/04/25 12:14:18;;;;;;;3.90;1.55;;;;;;;7.16;62.13;95693.44;2221261;26;20216;-68
2024/04/25 12:15:20;;;;;;;5.68;1.70;;;;;;;7.13;62.87;95691.00;2221676;26;20264;-68
2024/04/25 12:16:22;;;;;;;2.92;1.08;;;;;;;7.03;63.10;95694.03;2221655;26;20299;-68
2024/04/25 12:17:23;;;;;;;4.97;1.70;;;;;;;7.32;63.33;95698.75;2222031;26;20317;-67
2024/04/25 12:18:26;;;;;;;7.32;1.63;;;;;;;6.99;62.44;95694.22;2221980;26;20247;-68
2024/04/25 12:19:32;;;;;;;3.92;1.50;;;;;;;6.95;62.55;95690.09;2211749;26;20263;-68
2024/04/25 12:20:34;;;;;;;7.35;1.67;;;;;;;6.82;63.05;95700.19;2213593;26;20219;-68
2024/04/25 12:21:36;;;;;;;8.68;1.70;;;;;;;6.74;62.89;95687.53;2220679;26;20221;-68
2024/04/25 12:22:38;;;;;;;5.55;1.80;;;;;;;6.70;62.84;95683.38;2221254;26;20265;-68
2024/04/25 12:23:39;;;;;;;2.70;1.50;;;;;;;6.93;63.52;95686.69;2222186;26;20227;-68
2024/04/25 12:24:41;;;;;;;4.85;1.65;;;;;;;7.10;63.53;95684.19;2220626;26;20224;-67
2024/04/25 12:25:42;;;;;;;2.25;1.38;;;;;;;7.13;63.24;95694.41;2222307;26;20258;-68
2024/04/25 12:26:44;;;;;;;8.80;2.00;;;;;;;6.85;63.34;95682.69;2219163;26;20263;-68
2024/04/25 12:27:46;;;;;;;8.40;2.30;;;;;;;7.09;63.49;95689.44;2219290;26;20267;-68
2024/04/25 12:28:48;;;;;;;8.68;2.22;;;;;;;7.10;63.57;95689.38;2222228;26;20261;-68
2024/04/25 12:29:50;;;;;;;4.20;1.42;;;;;;;7.14;63.17;95685.72;2222289;26;20223;-68
2024/04/25 12:30:52;;;;;;;2.75;1.50;;;;;;;6.99;62.91;95684.66;2221256;26;20304;-68
2024/04/25 12:31:53;;;;;;;4.90;1.20;;;;;;;7.12;62.01;95690.16;2221791;26;20252;-68
2024/04/25 12:32:55;;;;;;;4.72;1.35;;;;;;;6.89;60.94;95690.34;2222223;26;20220;-68
2024/04/25 12:33:58;;;;;;;7.15;1.50;;;;;;;6.61;61.58;95691.59;2222257;26;20334;-68
2024/04/25 12:35:00;;;;;;;2.85;1.10;;;;;;;6.61;62.78;95692.41;2221521;26;20250;-68
2024/04/25 12:36:02;;;;;;;3.15;1.10;;;;;;;6.50;63.03;95689.44;2221704;26;20659;-68
2024/04/25 12:37:04;;;;;;;2.70;1.08;;;;;;;6.54;63.90;95686.66;2218532;26;20732;-68
2024/04/25 12:38:06;;;;;;;4.78;1.55;;;;;;;6.70;63.97;95685.97;2219804;26;20215;-68
2024/04/25 12:39:07;;;;;;;3.70;1.40;;;;;;;6.73;63.20;95680.69;2222093;26;20250;-68
2024/04/25 12:40:09;;;;;;;3.63;1.60;;;;;;;6.87;63.14;95685.25;2221184;26;20216;-68
2024/04/25 12:41:12;;;;;;;2.25;1.10;;;;;;;6.81;63.47;95688.94;2221391;26;20314;-67
2024/04/25 12:42:14;;;;;;;3.22;1.38;;;;;;;6.90;62.63;95681.66;2222061;26;20255;-68
2024/04/25 12:43:15;;;;;;;5.32;1.45;;;;;;;6.91;61.98;95689.38;2222580;26;20216;-68
2024/04/25 12:44:17;;;;;;;2.30;1.27;;;;;;;7.13;62.37;95681.44;2221094;26;20274;-64
2024/04/25 12:45:22;;;;;;;3.03;1.60;;;;;;;7.32;61.67;95685.78;2220922;26;20217;-65
2024/04/25 12:46:25;;;;;;;5.43;1.77;;;;;;;7.26;61.12;95680.88;2219251;26;20267;-64
2024/04/25 12:47:26;;;;;;;4.55;2.45;;;;;;;7.29;61.45;95673.78;2222052;26;20228;-64
2024/04/25 12:48:28;;;;;;;6.32;2.60;;;;;;;7.35;61.54;95681.28;2222182;26;20216;-64
2024/04/25 12:49:32;;;;;;;5.38;2.70;;;;;;;7.88;61.29;95670.13;2222330;26;20266;-64
2024/04/25 12:50:34;;;;;;;4.85;1.58;;;;;;;8.04;59.57;95680.59;2221980;26;20211;-64
2024/04/25 12:51:35;;;;;;;4.15;1.25;;;;;;;8.24;59.96;95677.84;2220971;26;20407;-64
2024/04/25 12:52:37;;;;;;;2.47;1.30;;;;;;;8.04;60.14;95680.59;2221017;26;20261;-64
2024/04/25 12:53:40;;;;;;;5.18;1.42;;;;;;;7.91;60.34;95677.75;2221047;26;20220;-64
2024/04/25 12:54:41;;;;;;;5.45;1.42;;;;;;;8.08;60.62;95677.78;2223728;26;20268;-64
2024/04/25 12:55:43;;;;;;;3.58;1.13;;;;;;;8.00;60.32;95670.34;2223336;26;20227;-64
2024/04/25 12:56:45;;;;;;;5.30;1.10;;;;;;;7.82;61.03;95677.31;2221628;26;20298;-64
2024/04/25 12:57:48;;;;;;;2.92;1.10;;;;;;;7.70;61.36;95674.47;2221950;26;20531;-65
2024/04/25 12:58:50;;;;;;;2.97;1.13;;;;;;;8.01;60.93;95669.44;2221884;26;20222;-64
2024/04/25 12:59:52;;;;;;;4.20;1.50;;;;;;;8.46;60.00;95664.59;2222336;26;20224;-64
2024/04/25 13:00:53;;;;;;;4.65;1.50;;;;;;;9.13;58.92;95667.16;2223856;26;20219;-64
2024/04/25 13:01:55;;;;;;;4.45;1.25;;;;;;;9.59;58.03;95663.75;2223438;26;20286;-66
2024/04/25 13:02:57;;;;;;;3.85;1.30;;;;;;;9.74;55.88;95667.25;2222888;26;20215;-65
2024/04/25 13:03:58;;;;;;;8.82;1.10;;;;;;;9.47;56.89;95667.03;2231903;26;20930;-65
2024/04/25 13:05:00;;;;;;;5.80;1.10;;;;;;;9.61;56.64;95668.88;2219942;26;20259;-65
2024/04/25 13:06:02;;;;;;;9.23;1.30;;;;;;;9.48;56.64;95658.31;2222976;26;20339;-64